Bei Facebook empfehlenBei Twitter postenGoogle plusPinterest

Das Wetter im Erzgebirge am 08.08.2015

Wetter und Klima am 08.08.2015 Holzhau im Erzgebirge (630m ü.NN)
Letzte gemessene Temperatur und Uhrzeit der Messung23:45:00 Uhr19.60 °C
Temperatur (Maximum / Höchstwert) und Uhrzeit der Messung14:30:00 Uhr34.10 °C
Temperatur (Minimum / Tiefstwert) und Uhrzeit der Messung06:00:0016.90 °C
Errechneter Absolutwert der Temperaturschwankungen zwischen Tmin und Tmax des Tages17.20 K
Errechnete Tagesmitteltemperatur25.95833 °C
Gesamt - Niederschlag des Tages (in flüssiger Form)0.00 Liter / m²
Luftdruck (Maximum / Höchstwert) und Zeitpunkt der Messung23:45:00 Uhr1020.50 hPa
Luftdruck (Minimum / Tiefstwert) und Zeitpunkt der Messung06:15:00 Uhr1017.10 hPa
Errechneter Absolutwert der Luftdruckschwankungen des Tages3.40 hPa
Höchste gemessene Windgeschwindigkeit und Uhrzeit der Messung23:45:00 Uhr0.00 km/h
Errechnete Windhäufigkeit in Relation zu den Messwerten des Tages0.00000 %
Niedrigste Windkühle (Windchill) und Zeitpunkt der Messung06:00:00 Uhr16.90 °C
Taupunkt (Maximum / Höchstwert) und Uhrzeit der Messung14:15:00 Uhr19.00 °C
Taupunkt (Minimum / Tiefstwert) und Uhrzeit der Messung05:30:0011.90 °C
Anzahl der automatisch eingelesenen Messwerte 96

Detaillierte Wetter- und Klima- Messwerte für den 08.08.2015 in Holzhau im Erzgebirge (630m ü.NN)
ZeitTemperaturLuftdruckRel. LuftfeuchteWindWindrichtungWindchillTaupunktNiederschlag l/m²
23:45:0019.60 °C1020.50 hPa75.00 %15.00 °C 
23:30:0019.90 °C1020.40 hPa73.00 %14.90 °C 
23:15:0020.20 °C1020.40 hPa72.00 %15.00 °C 
23:00:0020.60 °C1019.80 hPa71.00 %15.20 °C 
22:45:0020.90 °C1020.30 hPa70.00 %15.20 °C 
22:30:0021.30 °C1020.10 hPa69.00 %15.40 °C 
22:15:0021.60 °C1020.20 hPa68.00 %15.40 °C 
22:00:0022.10 °C1020.10 hPa68.00 %15.90 °C 
21:45:0022.40 °C1020.10 hPa66.00 %15.70 °C 
21:30:0023.10 °C1020.10 hPa65.00 %16.20 °C 
21:15:0023.60 °C1019.90 hPa62.00 %15.90 °C 
21:00:0024.00 °C1019.40 hPa60.00 %15.80 °C 
20:45:0024.50 °C1019.30 hPa58.00 %15.70 °C 
20:30:0025.30 °C1019.10 hPa56.00 %15.90 °C 
20:15:0026.30 °C1018.90 hPa54.00 %16.30 °C 
20:00:0027.60 °C1018.60 hPa50.00 %16.20 °C 
19:45:0028.50 °C1018.50 hPa49.00 %16.70 °C 
19:30:0029.40 °C1018.10 hPa47.00 %16.90 °C 
19:15:0030.30 °C1018.20 hPa47.00 %17.70 °C 
19:00:0030.80 °C1018.00 hPa46.00 %17.80 °C 
18:45:0031.30 °C1017.80 hPa44.00 %17.60 °C 
18:30:0031.90 °C1018.00 hPa43.00 %17.80 °C 
18:15:0032.40 °C1018.10 hPa43.00 %18.20 °C 
18:00:0032.40 °C1017.80 hPa42.00 %17.80 °C 
17:45:0032.40 °C1018.00 hPa43.00 %18.20 °C 
17:30:0032.80 °C1018.10 hPa42.00 %18.20 °C 
17:15:0033.40 °C1017.90 hPa41.00 %18.30 °C 
17:00:0033.70 °C1017.70 hPa41.00 %18.60 °C 
16:45:0033.80 °C1017.90 hPa41.00 %18.70 °C 
16:30:0033.60 °C1017.80 hPa41.00 %18.50 °C 
16:15:0033.60 °C1017.60 hPa42.00 %18.90 °C 
16:00:0033.50 °C1017.80 hPa41.00 %18.40 °C 
15:45:0033.30 °C1018.00 hPa42.00 %18.60 °C 
15:30:0033.20 °C1017.90 hPa42.00 %18.50 °C 
15:15:0033.40 °C1018.10 hPa42.00 %18.70 °C 
15:00:0033.20 °C1017.90 hPa42.00 %18.50 °C 
14:45:0033.30 °C1017.90 hPa41.00 %18.30 °C 
14:30:0034.10 °C1017.90 hPa40.00 %18.60 °C 
14:15:0034.10 °C1018.00 hPa41.00 %19.00 °C 
14:00:0034.10 °C1017.90 hPa41.00 %19.00 °C 
13:45:0033.40 °C1017.90 hPa42.00 %18.70 °C 
13:30:0032.70 °C1018.00 hPa43.00 %18.50 °C 
13:15:0031.80 °C1018.00 hPa45.00 %18.40 °C 
13:00:0032.20 °C1018.10 hPa42.00 %17.70 °C 
12:45:0032.90 °C1018.00 hPa41.00 %17.90 °C 
12:30:0033.30 °C1018.00 hPa41.00 %18.30 °C 
12:15:0033.70 °C1017.90 hPa40.00 %18.20 °C 
12:00:0033.50 °C1017.90 hPa39.00 %17.60 °C 
11:45:0033.30 °C1017.90 hPa40.00 %17.90 °C 
11:30:0032.50 °C1017.80 hPa40.00 %17.20 °C 
11:15:0032.40 °C1017.80 hPa40.00 %17.10 °C 
11:00:0031.60 °C1017.70 hPa42.00 %17.10 °C 
10:45:0030.90 °C1017.60 hPa44.00 %17.20 °C 
10:30:0030.30 °C1017.60 hPa44.00 %16.70 °C 
10:15:0029.70 °C1017.60 hPa44.00 %16.10 °C 
10:00:0029.90 °C1017.60 hPa45.00 %16.70 °C 
09:45:0029.60 °C1017.50 hPa46.00 %16.80 °C 
09:30:0029.30 °C1017.50 hPa47.00 %16.80 °C 
09:15:0028.90 °C1017.40 hPa48.00 %16.80 °C 
09:00:0028.30 °C1017.30 hPa51.00 %17.20 °C 
08:45:0027.50 °C1017.40 hPa53.00 %17.10 °C 
08:30:0026.40 °C1017.30 hPa57.00 %17.20 °C 
08:15:0025.40 °C1017.20 hPa57.00 %16.30 °C 
08:00:0024.50 °C1017.30 hPa58.00 %15.70 °C 
07:45:0023.50 °C1017.40 hPa61.00 %15.50 °C 
07:30:0022.00 °C1017.40 hPa65.00 %15.10 °C 
07:15:0019.90 °C1017.30 hPa69.00 %14.00 °C 
07:00:0019.10 °C1017.20 hPa71.00 %13.70 °C 
06:45:0018.50 °C1017.20 hPa72.00 %13.40 °C 
06:30:0017.90 °C1017.30 hPa73.00 %13.00 °C 
06:15:0017.10 °C1017.10 hPa74.00 %12.40 °C 
06:00:0016.90 °C1017.20 hPa74.00 %12.20 °C 
05:45:0016.90 °C1017.20 hPa73.00 %12.00 °C 
05:30:0017.20 °C1017.10 hPa71.00 %11.90 °C 
05:15:0018.00 °C1017.20 hPa69.00 %12.20 °C 
05:00:0018.30 °C1017.30 hPa68.00 %12.30 °C 
04:45:0018.70 °C1017.30 hPa67.00 %12.50 °C 
04:30:0019.10 °C1017.20 hPa65.00 %12.40 °C 
04:15:0019.30 °C1017.20 hPa65.00 %12.60 °C 
04:00:0019.30 °C1017.20 hPa64.00 %12.30 °C 
03:45:0019.50 °C1017.20 hPa64.00 %12.50 °C 
03:30:0019.50 °C1017.20 hPa64.00 %12.50 °C 
03:15:0019.40 °C1017.20 hPa64.00 %12.40 °C 
03:00:0019.60 °C1017.20 hPa64.00 %12.60 °C 
02:45:0020.00 °C1017.40 hPa63.00 %12.70 °C 
02:30:0019.90 °C1017.40 hPa64.00 %12.90 °C 
02:15:0019.50 °C1017.40 hPa65.00 %12.70 °C 
02:00:0019.20 °C1017.40 hPa66.00 %12.70 °C 
01:45:0019.10 °C1017.60 hPa66.00 %12.60 °C 
01:30:0019.10 °C1017.40 hPa67.00 %12.80 °C 
01:15:0019.10 °C1017.50 hPa67.00 %12.80 °C 
01:00:0019.10 °C1017.50 hPa67.00 %12.80 °C 
00:45:0019.30 °C1017.60 hPa66.00 %12.80 °C 
00:30:0019.50 °C1017.60 hPa65.00 %12.70 °C 
00:15:0019.50 °C1017.60 hPa65.00 %12.70 °C 
00:00:0019.50 °C1017.70 hPa65.00 %12.70 °C 

Permanenter Link zu dieser Seite: Wetter im Erzgebirge am 08.08.2015
Performance-Info: Die Erstellung der Seite / Statistik(en) / Tabelle(n) erforderte 5 Datenbankserver-Abfrage(n) und dauerte 97 Millisekunden. (Dieser Messwert ist von der Gesamt-Auslastung des Servers abhängig.)
Erzgebirge - Wetter | Erzgebirge - Wetter (Mobilgeräte) | Komplette Klimadatenbank